sensor_id;sensor_type;location;lat;lon;timestamp;P1;durP1;ratioP1;P2;durP2;ratioP2
20324;SDS011;10320;49.482;11.256;2022-08-19T00:00:14;43.10;;;38.83;;
20324;SDS011;10320;49.482;11.256;2022-08-19T00:02:40;41.17;;;37.28;;
20324;SDS011;10320;49.482;11.256;2022-08-19T00:05:07;41.00;;;36.78;;
20324;SDS011;10320;49.482;11.256;2022-08-19T00:07:33;42.85;;;38.65;;
20324;SDS011;10320;49.482;11.256;2022-08-19T00:09:59;45.42;;;40.85;;
20324;SDS011;10320;49.482;11.256;2022-08-19T00:12:25;44.35;;;40.22;;
20324;SDS011;10320;49.482;11.256;2022-08-19T00:14:51;45.88;;;41.13;;
20324;SDS011;10320;49.482;11.256;2022-08-19T00:17:19;44.08;;;39.83;;
20324;SDS011;10320;49.482;11.256;2022-08-19T00:19:45;42.35;;;38.25;;
20324;SDS011;10320;49.482;11.256;2022-08-19T00:22:11;44.72;;;40.33;;
20324;SDS011;10320;49.482;11.256;2022-08-19T00:24:37;44.13;;;39.83;;
20324;SDS011;10320;49.482;11.256;2022-08-19T00:27:04;43.88;;;39.65;;
20324;SDS011;10320;49.482;11.256;2022-08-19T00:29:30;43.95;;;39.53;;
20324;SDS011;10320;49.482;11.256;2022-08-19T00:31:57;45.47;;;41.15;;
20324;SDS011;10320;49.482;11.256;2022-08-19T00:34:25;46.35;;;41.63;;
20324;SDS011;10320;49.482;11.256;2022-08-19T00:36:53;46.40;;;41.78;;
20324;SDS011;10320;49.482;11.256;2022-08-19T00:39:19;45.88;;;41.55;;
20324;SDS011;10320;49.482;11.256;2022-08-19T00:41:46;46.95;;;42.33;;
20324;SDS011;10320;49.482;11.256;2022-08-19T00:44:17;45.22;;;40.88;;
20324;SDS011;10320;49.482;11.256;2022-08-19T00:46:47;46.67;;;42.20;;
20324;SDS011;10320;49.482;11.256;2022-08-19T00:49:15;42.88;;;38.65;;
20324;SDS011;10320;49.482;11.256;2022-08-19T00:51:42;42.85;;;38.75;;
20324;SDS011;10320;49.482;11.256;2022-08-19T00:54:10;42.85;;;38.67;;
20324;SDS011;10320;49.482;11.256;2022-08-19T00:56:36;42.78;;;38.58;;
20324;SDS011;10320;49.482;11.256;2022-08-19T00:59:02;41.85;;;37.65;;
20324;SDS011;10320;49.482;11.256;2022-08-19T01:01:33;42.33;;;38.03;;
20324;SDS011;10320;49.482;11.256;2022-08-19T01:03:59;43.85;;;39.63;;
20324;SDS011;10320;49.482;11.256;2022-08-19T01:06:25;43.60;;;39.42;;
20324;SDS011;10320;49.482;11.256;2022-08-19T01:08:52;42.17;;;38.22;;
20324;SDS011;10320;49.482;11.256;2022-08-19T01:11:18;42.78;;;38.53;;
20324;SDS011;10320;49.482;11.256;2022-08-19T01:13:44;43.28;;;39.10;;
20324;SDS011;10320;49.482;11.256;2022-08-19T01:16:12;45.03;;;40.45;;
20324;SDS011;10320;49.482;11.256;2022-08-19T01:18:40;42.10;;;38.08;;
20324;SDS011;10320;49.482;11.256;2022-08-19T01:21:12;43.15;;;39.05;;
20324;SDS011;10320;49.482;11.256;2022-08-19T01:23:41;43.63;;;39.40;;
20324;SDS011;10320;49.482;11.256;2022-08-19T01:26:09;42.70;;;38.63;;
20324;SDS011;10320;49.482;11.256;2022-08-19T01:28:36;44.35;;;39.88;;
20324;SDS011;10320;49.482;11.256;2022-08-19T01:31:02;45.10;;;40.60;;
20324;SDS011;10320;49.482;11.256;2022-08-19T01:33:28;44.20;;;39.95;;
20324;SDS011;10320;49.482;11.256;2022-08-19T01:36:06;43.83;;;39.63;;
20324;SDS011;10320;49.482;11.256;2022-08-19T01:38:34;43.63;;;39.28;;
20324;SDS011;10320;49.482;11.256;2022-08-19T01:41:01;40.83;;;36.90;;
20324;SDS011;10320;49.482;11.256;2022-08-19T01:43:27;42.53;;;38.42;;
20324;SDS011;10320;49.482;11.256;2022-08-19T01:45:53;42.97;;;38.70;;
20324;SDS011;10320;49.482;11.256;2022-08-19T01:48:19;38.53;;;34.92;;
20324;SDS011;10320;49.482;11.256;2022-08-19T01:50:45;38.00;;;34.53;;
20324;SDS011;10320;49.482;11.256;2022-08-19T01:53:13;36.97;;;33.42;;
20324;SDS011;10320;49.482;11.256;2022-08-19T01:55:40;38.47;;;34.92;;
20324;SDS011;10320;49.482;11.256;2022-08-19T01:58:17;35.45;;;32.25;;
20324;SDS011;10320;49.482;11.256;2022-08-19T02:00:44;36.97;;;33.53;;
20324;SDS011;10320;49.482;11.256;2022-08-19T02:03:11;36.95;;;33.42;;
20324;SDS011;10320;49.482;11.256;2022-08-19T02:05:37;36.17;;;32.80;;
20324;SDS011;10320;49.482;11.256;2022-08-19T02:08:04;34.17;;;31.27;;
20324;SDS011;10320;49.482;11.256;2022-08-19T02:10:30;36.90;;;33.50;;
20324;SDS011;10320;49.482;11.256;2022-08-19T02:12:57;38.65;;;35.05;;
20324;SDS011;10320;49.482;11.256;2022-08-19T02:15:23;37.83;;;34.35;;
20324;SDS011;10320;49.482;11.256;2022-08-19T02:17:49;36.15;;;32.88;;
20324;SDS011;10320;49.482;11.256;2022-08-19T02:20:15;35.35;;;32.08;;
20324;SDS011;10320;49.482;11.256;2022-08-19T02:22:42;35.67;;;32.47;;
20324;SDS011;10320;49.482;11.256;2022-08-19T02:25:12;36.83;;;33.35;;
20324;SDS011;10320;49.482;11.256;2022-08-19T02:27:38;37.25;;;33.92;;
20324;SDS011;10320;49.482;11.256;2022-08-19T02:30:05;37.95;;;34.53;;
20324;SDS011;10320;49.482;11.256;2022-08-19T02:32:32;36.90;;;33.60;;
20324;SDS011;10320;49.482;11.256;2022-08-19T02:34:58;38.20;;;34.47;;
20324;SDS011;10320;49.482;11.256;2022-08-19T02:37:24;36.20;;;32.78;;
20324;SDS011;10320;49.482;11.256;2022-08-19T02:40:09;37.50;;;34.00;;
20324;SDS011;10320;49.482;11.256;2022-08-19T02:42:35;37.13;;;33.80;;
20324;SDS011;10320;49.482;11.256;2022-08-19T02:45:01;35.30;;;32.22;;
20324;SDS011;10320;49.482;11.256;2022-08-19T02:47:27;36.88;;;33.40;;
20324;SDS011;10320;49.482;11.256;2022-08-19T02:49:53;37.05;;;33.72;;
20324;SDS011;10320;49.482;11.256;2022-08-19T02:52:19;37.40;;;33.90;;
20324;SDS011;10320;49.482;11.256;2022-08-19T02:54:48;33.30;;;30.25;;
20324;SDS011;10320;49.482;11.256;2022-08-19T02:57:14;35.78;;;32.38;;
20324;SDS011;10320;49.482;11.256;2022-08-19T02:59:40;34.92;;;31.77;;
20324;SDS011;10320;49.482;11.256;2022-08-19T03:02:06;33.33;;;30.33;;
20324;SDS011;10320;49.482;11.256;2022-08-19T03:04:32;33.00;;;30.10;;
20324;SDS011;10320;49.482;11.256;2022-08-19T03:06:58;34.50;;;31.40;;
20324;SDS011;10320;49.482;11.256;2022-08-19T03:09:24;35.13;;;31.83;;
20324;SDS011;10320;49.482;11.256;2022-08-19T03:11:50;34.58;;;31.38;;
20324;SDS011;10320;49.482;11.256;2022-08-19T03:14:16;34.33;;;30.92;;
20324;SDS011;10320;49.482;11.256;2022-08-19T03:16:47;34.13;;;31.02;;
20324;SDS011;10320;49.482;11.256;2022-08-19T03:19:15;33.67;;;30.58;;
20324;SDS011;10320;49.482;11.256;2022-08-19T03:21:42;34.03;;;30.83;;
20324;SDS011;10320;49.482;11.256;2022-08-19T03:24:12;33.35;;;30.35;;
20324;SDS011;10320;49.482;11.256;2022-08-19T03:26:42;34.03;;;30.70;;
20324;SDS011;10320;49.482;11.256;2022-08-19T03:29:08;33.85;;;30.85;;
20324;SDS011;10320;49.482;11.256;2022-08-19T03:31:36;34.58;;;31.45;;
20324;SDS011;10320;49.482;11.256;2022-08-19T03:34:02;34.22;;;31.13;;
20324;SDS011;10320;49.482;11.256;2022-08-19T03:36:28;34.15;;;30.95;;
20324;SDS011;10320;49.482;11.256;2022-08-19T03:38:55;34.15;;;30.88;;
20324;SDS011;10320;49.482;11.256;2022-08-19T03:41:26;33.50;;;30.50;;
20324;SDS011;10320;49.482;11.256;2022-08-19T03:43:53;33.78;;;30.45;;
20324;SDS011;10320;49.482;11.256;2022-08-19T03:46:24;33.55;;;30.45;;
20324;SDS011;10320;49.482;11.256;2022-08-19T03:48:51;32.63;;;29.63;;
20324;SDS011;10320;49.482;11.256;2022-08-19T03:51:21;33.83;;;30.63;;
20324;SDS011;10320;49.482;11.256;2022-08-19T03:53:48;34.33;;;31.05;;
20324;SDS011;10320;49.482;11.256;2022-08-19T03:56:14;35.17;;;32.00;;
20324;SDS011;10320;49.482;11.256;2022-08-19T03:58:41;34.65;;;31.40;;
20324;SDS011;10320;49.482;11.256;2022-08-19T04:01:11;35.00;;;31.80;;
20324;SDS011;10320;49.482;11.256;2022-08-19T04:03:37;35.75;;;32.38;;
20324;SDS011;10320;49.482;11.256;2022-08-19T04:06:14;35.78;;;32.35;;
20324;SDS011;10320;49.482;11.256;2022-08-19T04:08:40;34.30;;;31.10;;
20324;SDS011;10320;49.482;11.256;2022-08-19T04:11:08;36.45;;;32.83;;
20324;SDS011;10320;49.482;11.256;2022-08-19T04:13:34;36.20;;;32.60;;
20324;SDS011;10320;49.482;11.256;2022-08-19T04:16:00;36.22;;;32.72;;
20324;SDS011;10320;49.482;11.256;2022-08-19T04:18:26;35.88;;;32.40;;
20324;SDS011;10320;49.482;11.256;2022-08-19T04:20:54;34.67;;;31.50;;
20324;SDS011;10320;49.482;11.256;2022-08-19T04:23:21;37.67;;;33.75;;
20324;SDS011;10320;49.482;11.256;2022-08-19T04:25:47;38.47;;;34.67;;
20324;SDS011;10320;49.482;11.256;2022-08-19T04:28:13;37.90;;;34.13;;
20324;SDS011;10320;49.482;11.256;2022-08-19T04:30:44;37.50;;;33.80;;
20324;SDS011;10320;49.482;11.256;2022-08-19T04:33:11;36.88;;;33.10;;
20324;SDS011;10320;49.482;11.256;2022-08-19T04:35:39;36.10;;;32.55;;
20324;SDS011;10320;49.482;11.256;2022-08-19T04:38:06;35.25;;;31.70;;
20324;SDS011;10320;49.482;11.256;2022-08-19T04:40:32;35.95;;;32.35;;
20324;SDS011;10320;49.482;11.256;2022-08-19T04:43:17;38.08;;;34.35;;
20324;SDS011;10320;49.482;11.256;2022-08-19T04:45:43;37.08;;;33.40;;
20324;SDS011;10320;49.482;11.256;2022-08-19T04:48:10;36.78;;;33.17;;
20324;SDS011;10320;49.482;11.256;2022-08-19T04:50:38;37.28;;;33.67;;
20324;SDS011;10320;49.482;11.256;2022-08-19T04:53:05;37.88;;;34.10;;
20324;SDS011;10320;49.482;11.256;2022-08-19T04:55:31;37.83;;;34.13;;
20324;SDS011;10320;49.482;11.256;2022-08-19T04:57:57;37.70;;;34.05;;
20324;SDS011;10320;49.482;11.256;2022-08-19T05:00:24;36.97;;;33.28;;
20324;SDS011;10320;49.482;11.256;2022-08-19T05:02:50;37.53;;;33.55;;
20324;SDS011;10320;49.482;11.256;2022-08-19T05:05:16;37.20;;;33.50;;
20324;SDS011;10320;49.482;11.256;2022-08-19T05:07:42;36.20;;;32.47;;
20324;SDS011;10320;49.482;11.256;2022-08-19T05:10:09;37.50;;;33.72;;
20324;SDS011;10320;49.482;11.256;2022-08-19T05:12:35;37.80;;;34.20;;
20324;SDS011;10320;49.482;11.256;2022-08-19T05:15:02;37.80;;;33.92;;
20324;SDS011;10320;49.482;11.256;2022-08-19T05:17:28;36.25;;;32.67;;
20324;SDS011;10320;49.482;11.256;2022-08-19T05:19:54;37.42;;;33.80;;
20324;SDS011;10320;49.482;11.256;2022-08-19T05:22:40;37.17;;;33.38;;
20324;SDS011;10320;49.482;11.256;2022-08-19T05:25:10;37.97;;;34.03;;
20324;SDS011;10320;49.482;11.256;2022-08-19T05:27:37;37.67;;;33.97;;
20324;SDS011;10320;49.482;11.256;2022-08-19T05:30:04;37.70;;;33.97;;
20324;SDS011;10320;49.482;11.256;2022-08-19T05:32:30;37.33;;;33.45;;
20324;SDS011;10320;49.482;11.256;2022-08-19T05:34:56;36.75;;;33.13;;
20324;SDS011;10320;49.482;11.256;2022-08-19T05:37:22;34.85;;;31.52;;
20324;SDS011;10320;49.482;11.256;2022-08-19T05:39:51;34.88;;;31.77;;
20324;SDS011;10320;49.482;11.256;2022-08-19T05:42:17;33.08;;;30.05;;
20324;SDS011;10320;49.482;11.256;2022-08-19T05:44:44;33.15;;;29.90;;
20324;SDS011;10320;49.482;11.256;2022-08-19T05:47:13;30.83;;;28.00;;
20324;SDS011;10320;49.482;11.256;2022-08-19T05:49:39;31.10;;;28.30;;
20324;SDS011;10320;49.482;11.256;2022-08-19T05:52:06;31.80;;;28.88;;
20324;SDS011;10320;49.482;11.256;2022-08-19T05:54:33;32.38;;;29.45;;
20324;SDS011;10320;49.482;11.256;2022-08-19T05:57:01;30.77;;;27.85;;
20324;SDS011;10320;49.482;11.256;2022-08-19T05:59:27;31.05;;;28.15;;
20324;SDS011;10320;49.482;11.256;2022-08-19T06:01:53;30.08;;;27.48;;
20324;SDS011;10320;49.482;11.256;2022-08-19T06:04:20;30.50;;;27.60;;
20324;SDS011;10320;49.482;11.256;2022-08-19T06:06:47;29.13;;;26.33;;
20324;SDS011;10320;49.482;11.256;2022-08-19T06:09:13;28.95;;;26.45;;
20324;SDS011;10320;49.482;11.256;2022-08-19T06:11:41;28.85;;;26.35;;
20324;SDS011;10320;49.482;11.256;2022-08-19T06:14:12;26.27;;;23.88;;
20324;SDS011;10320;49.482;11.256;2022-08-19T06:16:39;27.10;;;24.48;;
20324;SDS011;10320;49.482;11.256;2022-08-19T06:19:07;26.60;;;24.30;;
20324;SDS011;10320;49.482;11.256;2022-08-19T06:21:34;25.17;;;22.88;;
20324;SDS011;10320;49.482;11.256;2022-08-19T06:24:02;25.27;;;23.08;;
20324;SDS011;10320;49.482;11.256;2022-08-19T06:26:28;23.48;;;21.48;;
20324;SDS011;10320;49.482;11.256;2022-08-19T06:28:55;23.45;;;21.35;;
20324;SDS011;10320;49.482;11.256;2022-08-19T06:31:23;23.30;;;21.20;;
20324;SDS011;10320;49.482;11.256;2022-08-19T06:33:50;23.25;;;21.17;;
20324;SDS011;10320;49.482;11.256;2022-08-19T06:36:35;22.90;;;20.90;;
20324;SDS011;10320;49.482;11.256;2022-08-19T06:39:05;23.58;;;21.40;;
20324;SDS011;10320;49.482;11.256;2022-08-19T06:41:34;22.55;;;20.48;;
20324;SDS011;10320;49.482;11.256;2022-08-19T06:44:00;23.60;;;21.50;;
20324;SDS011;10320;49.482;11.256;2022-08-19T06:46:26;21.27;;;19.48;;
20324;SDS011;10320;49.482;11.256;2022-08-19T06:48:52;21.08;;;19.27;;
20324;SDS011;10320;49.482;11.256;2022-08-19T06:51:19;19.35;;;17.60;;
20324;SDS011;10320;49.482;11.256;2022-08-19T06:53:46;18.50;;;16.98;;
20324;SDS011;10320;49.482;11.256;2022-08-19T06:56:16;19.98;;;18.33;;
20324;SDS011;10320;49.482;11.256;2022-08-19T06:58:43;17.42;;;15.85;;
20324;SDS011;10320;49.482;11.256;2022-08-19T07:01:09;16.80;;;15.40;;
20324;SDS011;10320;49.482;11.256;2022-08-19T07:03:36;18.60;;;16.88;;
20324;SDS011;10320;49.482;11.256;2022-08-19T07:06:10;18.40;;;16.65;;
20324;SDS011;10320;49.482;11.256;2022-08-19T07:08:37;17.67;;;16.17;;
20324;SDS011;10320;49.482;11.256;2022-08-19T07:11:09;15.98;;;14.57;;
20324;SDS011;10320;49.482;11.256;2022-08-19T07:13:36;17.02;;;15.55;;
20324;SDS011;10320;49.482;11.256;2022-08-19T07:16:06;17.52;;;15.93;;
20324;SDS011;10320;49.482;11.256;2022-08-19T07:18:34;18.38;;;16.77;;
20324;SDS011;10320;49.482;11.256;2022-08-19T07:21:07;18.20;;;16.60;;
20324;SDS011;10320;49.482;11.256;2022-08-19T07:23:35;17.25;;;15.85;;
20324;SDS011;10320;49.482;11.256;2022-08-19T07:26:05;18.40;;;16.80;;
20324;SDS011;10320;49.482;11.256;2022-08-19T07:28:36;18.00;;;16.35;;
20324;SDS011;10320;49.482;11.256;2022-08-19T07:31:04;19.13;;;17.33;;
20324;SDS011;10320;49.482;11.256;2022-08-19T07:33:31;19.60;;;17.73;;
20324;SDS011;10320;49.482;11.256;2022-08-19T07:36:00;19.88;;;18.08;;
20324;SDS011;10320;49.482;11.256;2022-08-19T07:38:26;20.50;;;18.70;;
20324;SDS011;10320;49.482;11.256;2022-08-19T07:40:52;18.55;;;16.95;;
20324;SDS011;10320;49.482;11.256;2022-08-19T07:43:18;19.10;;;17.45;;
20324;SDS011;10320;49.482;11.256;2022-08-19T07:45:45;18.95;;;17.08;;
20324;SDS011;10320;49.482;11.256;2022-08-19T07:48:11;18.20;;;16.60;;
20324;SDS011;10320;49.482;11.256;2022-08-19T07:50:38;18.50;;;16.80;;
20324;SDS011;10320;49.482;11.256;2022-08-19T07:53:04;18.48;;;16.80;;
20324;SDS011;10320;49.482;11.256;2022-08-19T07:55:30;17.77;;;16.27;;
20324;SDS011;10320;49.482;11.256;2022-08-19T07:57:56;17.35;;;15.73;;
20324;SDS011;10320;49.482;11.256;2022-08-19T08:00:22;17.63;;;16.13;;
20324;SDS011;10320;49.482;11.256;2022-08-19T08:02:47;15.98;;;14.60;;
20324;SDS011;10320;49.482;11.256;2022-08-19T08:05:13;15.70;;;14.40;;
20324;SDS011;10320;49.482;11.256;2022-08-19T08:07:57;15.52;;;14.15;;
20324;SDS011;10320;49.482;11.256;2022-08-19T08:10:41;16.15;;;14.73;;
20324;SDS011;10320;49.482;11.256;2022-08-19T08:13:07;16.25;;;14.85;;
20324;SDS011;10320;49.482;11.256;2022-08-19T08:15:33;17.02;;;15.52;;
20324;SDS011;10320;49.482;11.256;2022-08-19T08:17:59;16.73;;;15.32;;
20324;SDS011;10320;49.482;11.256;2022-08-19T08:20:25;16.85;;;15.40;;
20324;SDS011;10320;49.482;11.256;2022-08-19T08:22:51;17.65;;;15.98;;
20324;SDS011;10320;49.482;11.256;2022-08-19T08:25:35;17.23;;;15.77;;
20324;SDS011;10320;49.482;11.256;2022-08-19T08:28:04;16.88;;;15.48;;
20324;SDS011;10320;49.482;11.256;2022-08-19T08:30:30;16.35;;;14.85;;
20324;SDS011;10320;49.482;11.256;2022-08-19T08:32:58;17.67;;;15.98;;
20324;SDS011;10320;49.482;11.256;2022-08-19T08:35:24;18.77;;;16.98;;
20324;SDS011;10320;49.482;11.256;2022-08-19T08:37:51;18.38;;;16.73;;
20324;SDS011;10320;49.482;11.256;2022-08-19T08:40:19;18.38;;;16.67;;
20324;SDS011;10320;49.482;11.256;2022-08-19T08:43:29;19.55;;;17.67;;
20324;SDS011;10320;49.482;11.256;2022-08-19T08:54:32;19.70;;;17.80;;
20324;SDS011;10320;49.482;11.256;2022-08-19T09:00:10;20.90;;;18.88;;
20324;SDS011;10320;49.482;11.256;2022-08-19T09:02:39;20.67;;;18.77;;
20324;SDS011;10320;49.482;11.256;2022-08-19T09:05:06;20.60;;;18.70;;
20324;SDS011;10320;49.482;11.256;2022-08-19T09:10:37;19.38;;;17.67;;
20324;SDS011;10320;49.482;11.256;2022-08-19T09:13:15;21.65;;;19.65;;
20324;SDS011;10320;49.482;11.256;2022-08-19T09:15:53;21.38;;;19.40;;
20324;SDS011;10320;49.482;11.256;2022-08-19T09:18:29;22.75;;;20.55;;
20324;SDS011;10320;49.482;11.256;2022-08-19T09:21:14;20.45;;;18.52;;
20324;SDS011;10320;49.482;11.256;2022-08-19T09:23:40;22.05;;;20.08;;
20324;SDS011;10320;49.482;11.256;2022-08-19T09:26:11;21.67;;;19.67;;
20324;SDS011;10320;49.482;11.256;2022-08-19T09:28:39;20.73;;;18.77;;
20324;SDS011;10320;49.482;11.256;2022-08-19T09:31:09;21.42;;;19.42;;
20324;SDS011;10320;49.482;11.256;2022-08-19T09:33:36;21.98;;;19.88;;
20324;SDS011;10320;49.482;11.256;2022-08-19T09:36:04;21.63;;;19.48;;
20324;SDS011;10320;49.482;11.256;2022-08-19T09:38:34;22.77;;;20.55;;
20324;SDS011;10320;49.482;11.256;2022-08-19T09:41:02;21.80;;;19.80;;
20324;SDS011;10320;49.482;11.256;2022-08-19T09:43:29;21.77;;;19.83;;
20324;SDS011;10320;49.482;11.256;2022-08-19T09:45:56;22.10;;;20.00;;
20324;SDS011;10320;49.482;11.256;2022-08-19T09:48:22;23.15;;;20.83;;
20324;SDS011;10320;49.482;11.256;2022-08-19T09:50:47;21.52;;;19.45;;
20324;SDS011;10320;49.482;11.256;2022-08-19T09:53:15;21.73;;;19.70;;
20324;SDS011;10320;49.482;11.256;2022-08-19T09:55:44;23.55;;;21.45;;
20324;SDS011;10320;49.482;11.256;2022-08-19T09:58:09;22.55;;;20.45;;
20324;SDS011;10320;49.482;11.256;2022-08-19T10:00:36;20.15;;;18.35;;
20324;SDS011;10320;49.482;11.256;2022-08-19T10:03:03;21.20;;;19.00;;
20324;SDS011;10320;49.482;11.256;2022-08-19T10:05:29;21.15;;;19.10;;
20324;SDS011;10320;49.482;11.256;2022-08-19T10:08:13;21.23;;;19.13;;
20324;SDS011;10320;49.482;11.256;2022-08-19T10:10:40;21.25;;;19.27;;
20324;SDS011;10320;49.482;11.256;2022-08-19T10:13:09;20.83;;;18.73;;
20324;SDS011;10320;49.482;11.256;2022-08-19T10:15:35;20.17;;;18.27;;
20324;SDS011;10320;49.482;11.256;2022-08-19T10:18:04;19.45;;;17.48;;
20324;SDS011;10320;49.482;11.256;2022-08-19T10:20:30;20.05;;;18.15;;
20324;SDS011;10320;49.482;11.256;2022-08-19T10:22:56;20.33;;;18.33;;
20324;SDS011;10320;49.482;11.256;2022-08-19T10:25:24;19.80;;;18.00;;
20324;SDS011;10320;49.482;11.256;2022-08-19T10:27:51;19.80;;;17.92;;
20324;SDS011;10320;49.482;11.256;2022-08-19T10:30:17;23.63;;;21.42;;
20324;SDS011;10320;49.482;11.256;2022-08-19T10:32:43;23.73;;;21.52;;
20324;SDS011;10320;49.482;11.256;2022-08-19T10:35:10;24.85;;;22.45;;
20324;SDS011;10320;49.482;11.256;2022-08-19T10:37:37;24.85;;;22.50;;
20324;SDS011;10320;49.482;11.256;2022-08-19T10:40:04;26.45;;;23.95;;
20324;SDS011;10320;49.482;11.256;2022-08-19T10:42:33;28.02;;;25.33;;
20324;SDS011;10320;49.482;11.256;2022-08-19T10:45:00;27.67;;;24.88;;
20324;SDS011;10320;49.482;11.256;2022-08-19T10:47:26;29.58;;;26.70;;
20324;SDS011;10320;49.482;11.256;2022-08-19T10:49:52;29.30;;;26.48;;
20324;SDS011;10320;49.482;11.256;2022-08-19T10:52:41;31.65;;;28.27;;
20324;SDS011;10320;49.482;11.256;2022-08-19T10:55:09;31.05;;;27.77;;
20324;SDS011;10320;49.482;11.256;2022-08-19T10:57:54;27.95;;;25.15;;
20324;SDS011;10320;49.482;11.256;2022-08-19T11:00:20;28.48;;;25.75;;
20324;SDS011;10320;49.482;11.256;2022-08-19T11:02:48;28.45;;;25.65;;
20324;SDS011;10320;49.482;11.256;2022-08-19T11:05:14;28.73;;;25.98;;
20324;SDS011;10320;49.482;11.256;2022-08-19T11:07:40;28.15;;;25.25;;
20324;SDS011;10320;49.482;11.256;2022-08-19T11:10:07;28.65;;;25.85;;
20324;SDS011;10320;49.482;11.256;2022-08-19T11:12:36;29.45;;;26.40;;
20324;SDS011;10320;49.482;11.256;2022-08-19T11:15:04;27.33;;;24.55;;
20324;SDS011;10320;49.482;11.256;2022-08-19T11:17:36;28.98;;;26.10;;
20324;SDS011;10320;49.482;11.256;2022-08-19T11:20:09;30.60;;;27.50;;
20324;SDS011;10320;49.482;11.256;2022-08-19T11:22:36;29.13;;;25.95;;
20324;SDS011;10320;49.482;11.256;2022-08-19T11:25:01;40.88;;;32.00;;
20324;SDS011;10320;49.482;11.256;2022-08-19T11:27:27;72.10;;;48.65;;
20324;SDS011;10320;49.482;11.256;2022-08-19T11:29:54;47.28;;;37.42;;
20324;SDS011;10320;49.482;11.256;2022-08-19T11:32:20;35.58;;;31.88;;
20324;SDS011;10320;49.482;11.256;2022-08-19T11:34:45;39.58;;;33.78;;
20324;SDS011;10320;49.482;11.256;2022-08-19T11:37:11;35.00;;;31.45;;
20324;SDS011;10320;49.482;11.256;2022-08-19T11:39:36;34.55;;;30.95;;
20324;SDS011;10320;49.482;11.256;2022-08-19T11:42:04;34.83;;;31.23;;
20324;SDS011;10320;49.482;11.256;2022-08-19T11:44:51;33.10;;;29.73;;
20324;SDS011;10320;49.482;11.256;2022-08-19T11:47:17;37.80;;;33.70;;
20324;SDS011;10320;49.482;11.256;2022-08-19T11:49:43;35.25;;;31.88;;
20324;SDS011;10320;49.482;11.256;2022-08-19T11:52:08;34.58;;;31.23;;
20324;SDS011;10320;49.482;11.256;2022-08-19T11:54:35;34.42;;;31.02;;
20324;SDS011;10320;49.482;11.256;2022-08-19T11:57:04;35.65;;;32.05;;
20324;SDS011;10320;49.482;11.256;2022-08-19T11:59:30;36.35;;;32.65;;
20324;SDS011;10320;49.482;11.256;2022-08-19T12:01:55;37.40;;;33.35;;
20324;SDS011;10320;49.482;11.256;2022-08-19T12:04:22;38.00;;;34.00;;
20324;SDS011;10320;49.482;11.256;2022-08-19T12:06:48;37.72;;;33.65;;
20324;SDS011;10320;49.482;11.256;2022-08-19T12:09:15;37.67;;;33.80;;
20324;SDS011;10320;49.482;11.256;2022-08-19T12:11:42;41.72;;;35.75;;
20324;SDS011;10320;49.482;11.256;2022-08-19T12:14:11;38.50;;;34.42;;
20324;SDS011;10320;49.482;11.256;2022-08-19T12:16:39;37.75;;;33.42;;
20324;SDS011;10320;49.482;11.256;2022-08-19T12:19:05;39.38;;;34.97;;
20324;SDS011;10320;49.482;11.256;2022-08-19T12:21:33;38.78;;;34.67;;
20324;SDS011;10320;49.482;11.256;2022-08-19T12:24:00;38.70;;;34.65;;
20324;SDS011;10320;49.482;11.256;2022-08-19T12:26:28;38.13;;;34.08;;
20324;SDS011;10320;49.482;11.256;2022-08-19T12:28:56;37.28;;;33.38;;
20324;SDS011;10320;49.482;11.256;2022-08-19T12:31:24;36.72;;;32.83;;
20324;SDS011;10320;49.482;11.256;2022-08-19T12:33:50;36.67;;;32.95;;
20324;SDS011;10320;49.482;11.256;2022-08-19T12:36:17;36.15;;;32.55;;
20324;SDS011;10320;49.482;11.256;2022-08-19T12:38:43;33.17;;;29.88;;
20324;SDS011;10320;49.482;11.256;2022-08-19T12:41:10;33.35;;;29.95;;
20324;SDS011;10320;49.482;11.256;2022-08-19T12:43:38;31.13;;;28.13;;
20324;SDS011;10320;49.482;11.256;2022-08-19T12:46:04;31.92;;;28.73;;
20324;SDS011;10320;49.482;11.256;2022-08-19T12:48:31;31.45;;;28.50;;
20324;SDS011;10320;49.482;11.256;2022-08-19T12:50:57;29.30;;;26.45;;
20324;SDS011;10320;49.482;11.256;2022-08-19T12:53:23;27.85;;;25.25;;
20324;SDS011;10320;49.482;11.256;2022-08-19T12:55:56;28.90;;;26.20;;
20324;SDS011;10320;49.482;11.256;2022-08-19T12:58:23;28.85;;;26.15;;
20324;SDS011;10320;49.482;11.256;2022-08-19T13:00:48;27.92;;;25.33;;
20324;SDS011;10320;49.482;11.256;2022-08-19T13:03:14;27.30;;;24.77;;
20324;SDS011;10320;49.482;11.256;2022-08-19T13:05:40;27.85;;;25.25;;
20324;SDS011;10320;49.482;11.256;2022-08-19T13:08:06;27.52;;;25.13;;
20324;SDS011;10320;49.482;11.256;2022-08-19T13:10:34;27.58;;;25.08;;
20324;SDS011;10320;49.482;11.256;2022-08-19T13:13:01;26.17;;;23.77;;
20324;SDS011;10320;49.482;11.256;2022-08-19T13:15:32;27.58;;;25.00;;
20324;SDS011;10320;49.482;11.256;2022-08-19T13:18:01;25.90;;;23.65;;
20324;SDS011;10320;49.482;11.256;2022-08-19T13:20:27;27.48;;;24.92;;
20324;SDS011;10320;49.482;11.256;2022-08-19T13:22:54;28.48;;;25.65;;
20324;SDS011;10320;49.482;11.256;2022-08-19T13:25:20;27.17;;;24.88;;
20324;SDS011;10320;49.482;11.256;2022-08-19T13:27:47;27.05;;;24.55;;
20324;SDS011;10320;49.482;11.256;2022-08-19T13:30:14;27.33;;;24.73;;
20324;SDS011;10320;49.482;11.256;2022-08-19T13:32:59;28.27;;;25.73;;
20324;SDS011;10320;49.482;11.256;2022-08-19T13:38:10;29.23;;;26.40;;
20324;SDS011;10320;49.482;11.256;2022-08-19T13:40:36;28.77;;;26.08;;
20324;SDS011;10320;49.482;11.256;2022-08-19T13:43:02;27.83;;;25.30;;
20324;SDS011;10320;49.482;11.256;2022-08-19T13:45:29;29.08;;;26.38;;
20324;SDS011;10320;49.482;11.256;2022-08-19T13:47:59;29.35;;;26.65;;
20324;SDS011;10320;49.482;11.256;2022-08-19T13:50:29;29.92;;;27.23;;
20324;SDS011;10320;49.482;11.256;2022-08-19T13:52:58;29.30;;;26.63;;
20324;SDS011;10320;49.482;11.256;2022-08-19T13:55:25;29.83;;;27.17;;
20324;SDS011;10320;49.482;11.256;2022-08-19T13:57:55;32.33;;;29.30;;
20324;SDS011;10320;49.482;11.256;2022-08-19T14:00:23;29.45;;;26.75;;
20324;SDS011;10320;49.482;11.256;2022-08-19T14:02:51;30.90;;;28.05;;
20324;SDS011;10320;49.482;11.256;2022-08-19T14:05:19;31.52;;;28.55;;
20324;SDS011;10320;49.482;11.256;2022-08-19T14:07:45;29.88;;;26.98;;
20324;SDS011;10320;49.482;11.256;2022-08-19T14:10:12;28.92;;;26.33;;
20324;SDS011;10320;49.482;11.256;2022-08-19T14:12:39;26.83;;;24.42;;
20324;SDS011;10320;49.482;11.256;2022-08-19T14:15:06;27.83;;;25.20;;
20324;SDS011;10320;49.482;11.256;2022-08-19T14:17:34;26.45;;;23.75;;
20324;SDS011;10320;49.482;11.256;2022-08-19T14:20:03;28.60;;;25.58;;
20324;SDS011;10320;49.482;11.256;2022-08-19T14:22:34;26.38;;;23.83;;
20324;SDS011;10320;49.482;11.256;2022-08-19T14:25:02;27.13;;;24.42;;
20324;SDS011;10320;49.482;11.256;2022-08-19T14:27:29;26.95;;;24.15;;
20324;SDS011;10320;49.482;11.256;2022-08-19T14:29:54;23.13;;;20.85;;